sensor_id;sensor_type;location;lat;lon;timestamp;P1;durP1;ratioP1;P2;durP2;ratioP2
6356;SDS011;3211;53.452;-2.264;2023-04-03T00:00:54;4.77;;;2.40;;
6356;SDS011;3211;53.452;-2.264;2023-04-03T00:03:21;7.47;;;2.47;;
6356;SDS011;3211;53.452;-2.264;2023-04-03T00:05:51;6.33;;;2.10;;
6356;SDS011;3211;53.452;-2.264;2023-04-03T00:08:18;4.73;;;2.37;;
6356;SDS011;3211;53.452;-2.264;2023-04-03T00:10:45;7.50;;;2.30;;
6356;SDS011;3211;53.452;-2.264;2023-04-03T00:13:21;3.10;;;2.23;;
6356;SDS011;3211;53.452;-2.264;2023-04-03T00:15:48;4.73;;;2.40;;
6356;SDS011;3211;53.452;-2.264;2023-04-03T00:18:15;2.90;;;2.30;;
6356;SDS011;3211;53.452;-2.264;2023-04-03T00:20:42;7.70;;;2.63;;
6356;SDS011;3211;53.452;-2.264;2023-04-03T00:23:10;9.10;;;2.23;;
6356;SDS011;3211;53.452;-2.264;2023-04-03T00:25:37;8.20;;;2.50;;
6356;SDS011;3211;53.452;-2.264;2023-04-03T00:28:05;5.93;;;3.00;;
6356;SDS011;3211;53.452;-2.264;2023-04-03T00:30:32;7.10;;;2.57;;
6356;SDS011;3211;53.452;-2.264;2023-04-03T00:32:59;8.83;;;2.53;;
6356;SDS011;3211;53.452;-2.264;2023-04-03T00:35:27;8.33;;;2.93;;
6356;SDS011;3211;53.452;-2.264;2023-04-03T00:37:55;4.30;;;2.50;;
6356;SDS011;3211;53.452;-2.264;2023-04-03T00:40:24;3.60;;;2.30;;
6356;SDS011;3211;53.452;-2.264;2023-04-03T00:42:55;10.10;;;4.93;;
6356;SDS011;3211;53.452;-2.264;2023-04-03T00:45:25;5.83;;;2.30;;
6356;SDS011;3211;53.452;-2.264;2023-04-03T00:47:54;6.77;;;3.40;;
6356;SDS011;3211;53.452;-2.264;2023-04-03T00:50:24;5.67;;;2.50;;
6356;SDS011;3211;53.452;-2.264;2023-04-03T00:52:52;6.33;;;2.47;;
6356;SDS011;3211;53.452;-2.264;2023-04-03T00:55:20;13.67;;;2.87;;
6356;SDS011;3211;53.452;-2.264;2023-04-03T00:57:48;6.97;;;2.73;;
6356;SDS011;3211;53.452;-2.264;2023-04-03T01:00:16;9.93;;;2.90;;
6356;SDS011;3211;53.452;-2.264;2023-04-03T01:02:47;13.30;;;3.20;;
6356;SDS011;3211;53.452;-2.264;2023-04-03T01:05:14;3.77;;;2.60;;
6356;SDS011;3211;53.452;-2.264;2023-04-03T01:07:43;6.20;;;3.17;;
6356;SDS011;3211;53.452;-2.264;2023-04-03T01:10:12;4.33;;;2.60;;
6356;SDS011;3211;53.452;-2.264;2023-04-03T01:12:41;5.13;;;2.97;;
6356;SDS011;3211;53.452;-2.264;2023-04-03T01:15:12;7.50;;;3.27;;
6356;SDS011;3211;53.452;-2.264;2023-04-03T01:17:41;4.63;;;3.00;;
6356;SDS011;3211;53.452;-2.264;2023-04-03T01:23:21;4.97;;;3.07;;
6356;SDS011;3211;53.452;-2.264;2023-04-03T01:25:55;9.00;;;2.60;;
6356;SDS011;3211;53.452;-2.264;2023-04-03T01:28:24;5.00;;;2.37;;
6356;SDS011;3211;53.452;-2.264;2023-04-03T01:30:56;2.90;;;2.20;;
6356;SDS011;3211;53.452;-2.264;2023-04-03T01:33:29;12.17;;;2.97;;
6356;SDS011;3211;53.452;-2.264;2023-04-03T01:35:56;4.37;;;2.33;;
6356;SDS011;3211;53.452;-2.264;2023-04-03T01:38:23;9.70;;;2.00;;
6356;SDS011;3211;53.452;-2.264;2023-04-03T01:40:50;4.13;;;2.27;;
6356;SDS011;3211;53.452;-2.264;2023-04-03T01:43:17;6.07;;;2.27;;
6356;SDS011;3211;53.452;-2.264;2023-04-03T01:45:44;12.50;;;2.60;;
6356;SDS011;3211;53.452;-2.264;2023-04-03T01:48:12;5.90;;;2.57;;
6356;SDS011;3211;53.452;-2.264;2023-04-03T01:50:40;5.43;;;1.97;;
6356;SDS011;3211;53.452;-2.264;2023-04-03T01:53:07;7.07;;;2.53;;
6356;SDS011;3211;53.452;-2.264;2023-04-03T01:55:34;3.30;;;2.30;;
6356;SDS011;3211;53.452;-2.264;2023-04-03T01:58:02;4.13;;;2.20;;
6356;SDS011;3211;53.452;-2.264;2023-04-03T02:00:29;8.57;;;2.10;;
6356;SDS011;3211;53.452;-2.264;2023-04-03T02:02:56;12.50;;;2.90;;
6356;SDS011;3211;53.452;-2.264;2023-04-03T02:05:23;4.97;;;2.50;;
6356;SDS011;3211;53.452;-2.264;2023-04-03T02:07:52;2.60;;;2.10;;
6356;SDS011;3211;53.452;-2.264;2023-04-03T02:10:19;5.63;;;2.53;;
6356;SDS011;3211;53.452;-2.264;2023-04-03T02:12:45;4.90;;;1.90;;
6356;SDS011;3211;53.452;-2.264;2023-04-03T02:15:12;5.63;;;2.50;;
6356;SDS011;3211;53.452;-2.264;2023-04-03T02:17:39;4.80;;;2.67;;
6356;SDS011;3211;53.452;-2.264;2023-04-03T02:20:07;7.83;;;2.03;;
6356;SDS011;3211;53.452;-2.264;2023-04-03T02:22:34;3.10;;;1.80;;
6356;SDS011;3211;53.452;-2.264;2023-04-03T02:25:03;4.83;;;2.40;;
6356;SDS011;3211;53.452;-2.264;2023-04-03T02:27:31;3.30;;;2.30;;
6356;SDS011;3211;53.452;-2.264;2023-04-03T02:29:57;5.50;;;2.00;;
6356;SDS011;3211;53.452;-2.264;2023-04-03T02:32:24;3.40;;;2.23;;
6356;SDS011;3211;53.452;-2.264;2023-04-03T02:34:51;3.13;;;2.50;;
6356;SDS011;3211;53.452;-2.264;2023-04-03T02:37:18;5.40;;;2.03;;
6356;SDS011;3211;53.452;-2.264;2023-04-03T02:39:45;5.90;;;2.53;;
6356;SDS011;3211;53.452;-2.264;2023-04-03T02:42:14;5.27;;;2.30;;
6356;SDS011;3211;53.452;-2.264;2023-04-03T02:44:41;5.73;;;2.53;;
6356;SDS011;3211;53.452;-2.264;2023-04-03T02:47:08;10.60;;;2.27;;
6356;SDS011;3211;53.452;-2.264;2023-04-03T02:49:34;5.73;;;2.20;;
6356;SDS011;3211;53.452;-2.264;2023-04-03T02:52:01;5.77;;;1.80;;
6356;SDS011;3211;53.452;-2.264;2023-04-03T02:54:28;6.93;;;2.50;;
6356;SDS011;3211;53.452;-2.264;2023-04-03T02:56:55;5.27;;;1.90;;
6356;SDS011;3211;53.452;-2.264;2023-04-03T02:59:24;6.27;;;2.37;;
6356;SDS011;3211;53.452;-2.264;2023-04-03T03:01:51;6.30;;;2.17;;
6356;SDS011;3211;53.452;-2.264;2023-04-03T03:04:18;3.83;;;2.50;;
6356;SDS011;3211;53.452;-2.264;2023-04-03T03:06:45;5.90;;;2.57;;
6356;SDS011;3211;53.452;-2.264;2023-04-03T03:09:12;5.07;;;2.40;;
6356;SDS011;3211;53.452;-2.264;2023-04-03T03:11:40;3.80;;;2.40;;
6356;SDS011;3211;53.452;-2.264;2023-04-03T03:14:07;9.43;;;2.70;;
6356;SDS011;3211;53.452;-2.264;2023-04-03T03:16:35;8.00;;;2.20;;
6356;SDS011;3211;53.452;-2.264;2023-04-03T03:19:02;4.57;;;2.70;;
6356;SDS011;3211;53.452;-2.264;2023-04-03T03:21:30;6.17;;;2.77;;
6356;SDS011;3211;53.452;-2.264;2023-04-03T03:24:01;6.13;;;3.47;;
6356;SDS011;3211;53.452;-2.264;2023-04-03T03:26:28;5.77;;;2.67;;
6356;SDS011;3211;53.452;-2.264;2023-04-03T03:28:55;6.50;;;2.50;;
6356;SDS011;3211;53.452;-2.264;2023-04-03T03:31:22;3.77;;;2.07;;
6356;SDS011;3211;53.452;-2.264;2023-04-03T03:33:50;4.83;;;2.50;;
6356;SDS011;3211;53.452;-2.264;2023-04-03T03:36:17;6.10;;;2.30;;
6356;SDS011;3211;53.452;-2.264;2023-04-03T03:38:44;5.77;;;2.50;;
6356;SDS011;3211;53.452;-2.264;2023-04-03T03:41:11;8.93;;;2.33;;
6356;SDS011;3211;53.452;-2.264;2023-04-03T03:43:38;5.27;;;2.90;;
6356;SDS011;3211;53.452;-2.264;2023-04-03T03:46:05;2.50;;;1.90;;
6356;SDS011;3211;53.452;-2.264;2023-04-03T03:48:32;4.90;;;2.33;;
6356;SDS011;3211;53.452;-2.264;2023-04-03T03:51:00;10.27;;;2.70;;
6356;SDS011;3211;53.452;-2.264;2023-04-03T03:53:27;6.80;;;2.60;;
6356;SDS011;3211;53.452;-2.264;2023-04-03T03:55:54;5.17;;;2.40;;
6356;SDS011;3211;53.452;-2.264;2023-04-03T03:58:21;4.33;;;2.90;;
6356;SDS011;3211;53.452;-2.264;2023-04-03T04:00:48;3.97;;;2.23;;
6356;SDS011;3211;53.452;-2.264;2023-04-03T04:03:15;4.17;;;2.67;;
6356;SDS011;3211;53.452;-2.264;2023-04-03T04:05:42;4.90;;;2.90;;
6356;SDS011;3211;53.452;-2.264;2023-04-03T04:08:11;7.33;;;2.73;;
6356;SDS011;3211;53.452;-2.264;2023-04-03T04:10:38;4.97;;;3.10;;
6356;SDS011;3211;53.452;-2.264;2023-04-03T04:13:05;4.30;;;2.53;;
6356;SDS011;3211;53.452;-2.264;2023-04-03T04:15:31;6.93;;;3.07;;
6356;SDS011;3211;53.452;-2.264;2023-04-03T04:17:58;6.43;;;2.63;;
6356;SDS011;3211;53.452;-2.264;2023-04-03T04:20:25;9.83;;;2.80;;
6356;SDS011;3211;53.452;-2.264;2023-04-03T04:22:53;4.70;;;2.40;;
6356;SDS011;3211;53.452;-2.264;2023-04-03T04:25:21;4.40;;;2.33;;
6356;SDS011;3211;53.452;-2.264;2023-04-03T04:27:48;7.70;;;2.53;;
6356;SDS011;3211;53.452;-2.264;2023-04-03T04:30:15;8.40;;;3.40;;
6356;SDS011;3211;53.452;-2.264;2023-04-03T04:32:42;10.53;;;3.10;;
6356;SDS011;3211;53.452;-2.264;2023-04-03T04:35:09;4.40;;;2.33;;
6356;SDS011;3211;53.452;-2.264;2023-04-03T04:37:36;6.20;;;2.80;;
6356;SDS011;3211;53.452;-2.264;2023-04-03T04:40:04;5.33;;;2.97;;
6356;SDS011;3211;53.452;-2.264;2023-04-03T04:42:34;4.00;;;3.07;;
6356;SDS011;3211;53.452;-2.264;2023-04-03T04:45:01;5.57;;;3.40;;
6356;SDS011;3211;53.452;-2.264;2023-04-03T04:47:28;7.30;;;3.23;;
6356;SDS011;3211;53.452;-2.264;2023-04-03T04:49:55;7.43;;;3.10;;
6356;SDS011;3211;53.452;-2.264;2023-04-03T04:52:22;4.90;;;2.87;;
6356;SDS011;3211;53.452;-2.264;2023-04-03T04:54:49;5.27;;;3.10;;
6356;SDS011;3211;53.452;-2.264;2023-04-03T04:57:16;5.10;;;3.10;;
6356;SDS011;3211;53.452;-2.264;2023-04-03T04:59:44;9.20;;;3.90;;
6356;SDS011;3211;53.452;-2.264;2023-04-03T05:02:11;11.13;;;3.83;;
6356;SDS011;3211;53.452;-2.264;2023-04-03T05:04:38;10.83;;;3.90;;
6356;SDS011;3211;53.452;-2.264;2023-04-03T05:07:05;7.53;;;2.90;;
6356;SDS011;3211;53.452;-2.264;2023-04-03T05:09:35;4.90;;;3.37;;
6356;SDS011;3211;53.452;-2.264;2023-04-03T05:12:02;10.60;;;3.53;;
6356;SDS011;3211;53.452;-2.264;2023-04-03T05:14:29;5.90;;;3.40;;
6356;SDS011;3211;53.452;-2.264;2023-04-03T05:16:58;6.23;;;3.67;;
6356;SDS011;3211;53.452;-2.264;2023-04-03T05:19:25;12.73;;;4.07;;
6356;SDS011;3211;53.452;-2.264;2023-04-03T05:21:52;7.87;;;4.10;;
6356;SDS011;3211;53.452;-2.264;2023-04-03T05:24:19;7.80;;;4.23;;
6356;SDS011;3211;53.452;-2.264;2023-04-03T05:26:46;17.27;;;4.67;;
6356;SDS011;3211;53.452;-2.264;2023-04-03T05:29:12;11.00;;;4.93;;
6356;SDS011;3211;53.452;-2.264;2023-04-03T05:31:39;8.20;;;3.80;;
6356;SDS011;3211;53.452;-2.264;2023-04-03T05:34:08;9.07;;;4.20;;
6356;SDS011;3211;53.452;-2.264;2023-04-03T05:36:35;16.73;;;4.83;;
6356;SDS011;3211;53.452;-2.264;2023-04-03T05:39:02;12.77;;;4.80;;
6356;SDS011;3211;53.452;-2.264;2023-04-03T05:41:29;9.23;;;4.67;;
6356;SDS011;3211;53.452;-2.264;2023-04-03T05:43:56;7.60;;;3.63;;
6356;SDS011;3211;53.452;-2.264;2023-04-03T05:46:23;7.13;;;4.47;;
6356;SDS011;3211;53.452;-2.264;2023-04-03T05:48:51;11.43;;;4.60;;
6356;SDS011;3211;53.452;-2.264;2023-04-03T05:51:21;12.23;;;4.87;;
6356;SDS011;3211;53.452;-2.264;2023-04-03T05:53:52;9.53;;;4.70;;
6356;SDS011;3211;53.452;-2.264;2023-04-03T05:56:25;10.03;;;4.73;;
6356;SDS011;3211;53.452;-2.264;2023-04-03T05:58:52;10.53;;;4.63;;
6356;SDS011;3211;53.452;-2.264;2023-04-03T06:01:20;7.83;;;4.63;;
6356;SDS011;3211;53.452;-2.264;2023-04-03T06:03:47;11.90;;;5.37;;
6356;SDS011;3211;53.452;-2.264;2023-04-03T06:06:16;18.47;;;4.63;;
6356;SDS011;3211;53.452;-2.264;2023-04-03T06:08:44;9.47;;;4.10;;
6356;SDS011;3211;53.452;-2.264;2023-04-03T06:11:11;9.00;;;4.23;;
6356;SDS011;3211;53.452;-2.264;2023-04-03T06:13:38;10.20;;;4.50;;
6356;SDS011;3211;53.452;-2.264;2023-04-03T06:16:05;12.67;;;4.80;;
6356;SDS011;3211;53.452;-2.264;2023-04-03T06:18:33;7.47;;;4.47;;
6356;SDS011;3211;53.452;-2.264;2023-04-03T06:21:00;8.80;;;4.70;;
6356;SDS011;3211;53.452;-2.264;2023-04-03T06:23:27;10.67;;;4.50;;
6356;SDS011;3211;53.452;-2.264;2023-04-03T06:25:56;5.73;;;3.93;;
6356;SDS011;3211;53.452;-2.264;2023-04-03T06:28:23;6.30;;;3.33;;
6356;SDS011;3211;53.452;-2.264;2023-04-03T06:30:50;9.27;;;4.47;;
6356;SDS011;3211;53.452;-2.264;2023-04-03T06:33:17;10.87;;;5.10;;
6356;SDS011;3211;53.452;-2.264;2023-04-03T06:35:44;7.10;;;4.07;;
6356;SDS011;3211;53.452;-2.264;2023-04-03T06:38:11;7.17;;;4.00;;
6356;SDS011;3211;53.452;-2.264;2023-04-03T06:40:38;7.83;;;4.20;;
6356;SDS011;3211;53.452;-2.264;2023-04-03T06:43:06;5.17;;;3.73;;
6356;SDS011;3211;53.452;-2.264;2023-04-03T06:45:33;9.87;;;3.90;;
6356;SDS011;3211;53.452;-2.264;2023-04-03T06:48:01;6.70;;;4.30;;
6356;SDS011;3211;53.452;-2.264;2023-04-03T06:50:28;7.13;;;3.80;;
6356;SDS011;3211;53.452;-2.264;2023-04-03T06:52:55;11.13;;;4.53;;
6356;SDS011;3211;53.452;-2.264;2023-04-03T06:55:21;5.93;;;3.90;;
6356;SDS011;3211;53.452;-2.264;2023-04-03T06:57:49;10.00;;;4.87;;
6356;SDS011;3211;53.452;-2.264;2023-04-03T07:00:17;15.70;;;5.73;;
6356;SDS011;3211;53.452;-2.264;2023-04-03T07:02:45;5.93;;;3.70;;
6356;SDS011;3211;53.452;-2.264;2023-04-03T07:05:12;8.80;;;3.90;;
6356;SDS011;3211;53.452;-2.264;2023-04-03T07:07:39;8.20;;;3.93;;
6356;SDS011;3211;53.452;-2.264;2023-04-03T07:10:06;18.00;;;4.30;;
6356;SDS011;3211;53.452;-2.264;2023-04-03T07:12:34;14.23;;;5.40;;
6356;SDS011;3211;53.452;-2.264;2023-04-03T07:15:01;5.83;;;2.80;;
6356;SDS011;3211;53.452;-2.264;2023-04-03T07:17:30;5.50;;;3.00;;
6356;SDS011;3211;53.452;-2.264;2023-04-03T07:19:57;12.23;;;4.90;;
6356;SDS011;3211;53.452;-2.264;2023-04-03T07:22:24;4.17;;;2.27;;
6356;SDS011;3211;53.452;-2.264;2023-04-03T07:24:51;4.67;;;2.30;;
6356;SDS011;3211;53.452;-2.264;2023-04-03T07:27:18;15.73;;;3.07;;
6356;SDS011;3211;53.452;-2.264;2023-04-03T07:29:45;4.80;;;2.43;;
6356;SDS011;3211;53.452;-2.264;2023-04-03T07:32:13;8.50;;;2.50;;
6356;SDS011;3211;53.452;-2.264;2023-04-03T07:34:42;8.20;;;2.40;;
6356;SDS011;3211;53.452;-2.264;2023-04-03T07:37:09;6.97;;;1.87;;
6356;SDS011;3211;53.452;-2.264;2023-04-03T07:39:36;7.60;;;2.10;;
6356;SDS011;3211;53.452;-2.264;2023-04-03T07:42:03;11.03;;;3.40;;
6356;SDS011;3211;53.452;-2.264;2023-04-03T07:44:30;5.63;;;1.80;;
6356;SDS011;3211;53.452;-2.264;2023-04-03T07:46:57;5.13;;;1.83;;
6356;SDS011;3211;53.452;-2.264;2023-04-03T07:49:24;8.27;;;2.30;;
6356;SDS011;3211;53.452;-2.264;2023-04-03T07:51:53;4.37;;;1.83;;
6356;SDS011;3211;53.452;-2.264;2023-04-03T07:54:20;5.33;;;1.77;;
6356;SDS011;3211;53.452;-2.264;2023-04-03T07:56:47;9.23;;;1.97;;
6356;SDS011;3211;53.452;-2.264;2023-04-03T07:59:14;4.13;;;1.90;;
6356;SDS011;3211;53.452;-2.264;2023-04-03T08:01:41;4.23;;;1.83;;
6356;SDS011;3211;53.452;-2.264;2023-04-03T08:04:08;4.87;;;1.80;;
6356;SDS011;3211;53.452;-2.264;2023-04-03T08:06:36;4.80;;;2.37;;
6356;SDS011;3211;53.452;-2.264;2023-04-03T08:09:04;12.63;;;2.40;;
6356;SDS011;3211;53.452;-2.264;2023-04-03T08:11:31;4.67;;;1.50;;
6356;SDS011;3211;53.452;-2.264;2023-04-03T08:13:58;6.47;;;1.73;;
6356;SDS011;3211;53.452;-2.264;2023-04-03T08:16:25;2.00;;;1.47;;
6356;SDS011;3211;53.452;-2.264;2023-04-03T08:18:53;4.00;;;1.60;;
6356;SDS011;3211;53.452;-2.264;2023-04-03T08:21:21;2.70;;;1.33;;
6356;SDS011;3211;53.452;-2.264;2023-04-03T08:23:48;4.03;;;1.60;;
6356;SDS011;3211;53.452;-2.264;2023-04-03T08:26:18;1.23;;;1.10;;
6356;SDS011;3211;53.452;-2.264;2023-04-03T08:28:47;5.03;;;1.53;;
6356;SDS011;3211;53.452;-2.264;2023-04-03T08:31:15;5.03;;;1.70;;
6356;SDS011;3211;53.452;-2.264;2023-04-03T08:33:43;10.10;;;2.03;;
6356;SDS011;3211;53.452;-2.264;2023-04-03T08:36:16;6.57;;;1.70;;
6356;SDS011;3211;53.452;-2.264;2023-04-03T08:38:45;4.93;;;1.80;;
6356;SDS011;3211;53.452;-2.264;2023-04-03T08:41:14;2.47;;;1.30;;
6356;SDS011;3211;53.452;-2.264;2023-04-03T08:43:52;5.07;;;2.20;;
6356;SDS011;3211;53.452;-2.264;2023-04-03T08:46:26;4.03;;;1.57;;
6356;SDS011;3211;53.452;-2.264;2023-04-03T08:49:02;6.37;;;2.20;;
6356;SDS011;3211;53.452;-2.264;2023-04-03T08:51:31;4.70;;;1.50;;
6356;SDS011;3211;53.452;-2.264;2023-04-03T08:54:00;3.67;;;1.80;;
6356;SDS011;3211;53.452;-2.264;2023-04-03T08:56:29;7.60;;;2.00;;
6356;SDS011;3211;53.452;-2.264;2023-04-03T08:58:59;6.10;;;1.83;;
6356;SDS011;3211;53.452;-2.264;2023-04-03T09:01:33;5.10;;;1.70;;
6356;SDS011;3211;53.452;-2.264;2023-04-03T09:04:01;4.30;;;1.90;;
6356;SDS011;3211;53.452;-2.264;2023-04-03T09:06:31;5.07;;;1.73;;
6356;SDS011;3211;53.452;-2.264;2023-04-03T09:09:02;4.77;;;1.80;;
6356;SDS011;3211;53.452;-2.264;2023-04-03T09:11:42;7.83;;;1.83;;
6356;SDS011;3211;53.452;-2.264;2023-04-03T09:14:17;4.83;;;1.70;;
6356;SDS011;3211;53.452;-2.264;2023-04-03T09:16:52;7.67;;;1.93;;
6356;SDS011;3211;53.452;-2.264;2023-04-03T09:19:23;4.43;;;1.53;;
6356;SDS011;3211;53.452;-2.264;2023-04-03T09:21:58;3.00;;;1.77;;
6356;SDS011;3211;53.452;-2.264;2023-04-03T09:24:31;2.90;;;1.50;;
6356;SDS011;3211;53.452;-2.264;2023-04-03T09:27:01;5.83;;;1.70;;
6356;SDS011;3211;53.452;-2.264;2023-04-03T09:29:32;6.20;;;1.50;;
6356;SDS011;3211;53.452;-2.264;2023-04-03T09:32:08;3.10;;;1.67;;
6356;SDS011;3211;53.452;-2.264;2023-04-03T09:34:44;2.83;;;1.87;;
6356;SDS011;3211;53.452;-2.264;2023-04-03T09:37:15;6.43;;;1.70;;
6356;SDS011;3211;53.452;-2.264;2023-04-03T09:40:01;3.90;;;1.93;;
6356;SDS011;3211;53.452;-2.264;2023-04-03T09:42:29;4.50;;;2.07;;
6356;SDS011;3211;53.452;-2.264;2023-04-03T09:45:01;3.20;;;1.60;;
6356;SDS011;3211;53.452;-2.264;2023-04-03T09:47:30;7.23;;;1.83;;
6356;SDS011;3211;53.452;-2.264;2023-04-03T09:50:10;3.37;;;1.87;;
6356;SDS011;3211;53.452;-2.264;2023-04-03T09:52:46;4.90;;;1.87;;
6356;SDS011;3211;53.452;-2.264;2023-04-03T09:55:14;5.23;;;1.67;;
6356;SDS011;3211;53.452;-2.264;2023-04-03T09:57:43;8.13;;;1.93;;
6356;SDS011;3211;53.452;-2.264;2023-04-03T10:00:20;7.70;;;2.10;;
6356;SDS011;3211;53.452;-2.264;2023-04-03T10:02:49;6.13;;;2.50;;
6356;SDS011;3211;53.452;-2.264;2023-04-03T10:05:28;5.20;;;2.03;;
6356;SDS011;3211;53.452;-2.264;2023-04-03T10:08:08;5.63;;;1.50;;
6356;SDS011;3211;53.452;-2.264;2023-04-03T10:10:42;5.03;;;2.00;;
6356;SDS011;3211;53.452;-2.264;2023-04-03T10:13:12;9.03;;;2.07;;
6356;SDS011;3211;53.452;-2.264;2023-04-03T10:15:46;5.97;;;2.10;;
6356;SDS011;3211;53.452;-2.264;2023-04-03T10:18:23;9.70;;;1.57;;
6356;SDS011;3211;53.452;-2.264;2023-04-03T10:20:59;7.03;;;2.73;;
6356;SDS011;3211;53.452;-2.264;2023-04-03T10:23:31;5.30;;;1.80;;
6356;SDS011;3211;53.452;-2.264;2023-04-03T10:26:07;6.80;;;1.60;;
6356;SDS011;3211;53.452;-2.264;2023-04-03T10:28:44;8.70;;;2.03;;
6356;SDS011;3211;53.452;-2.264;2023-04-03T10:31:20;5.07;;;2.00;;
6356;SDS011;3211;53.452;-2.264;2023-04-03T10:33:53;3.73;;;2.13;;
6356;SDS011;3211;53.452;-2.264;2023-04-03T10:36:29;2.63;;;1.90;;
6356;SDS011;3211;53.452;-2.264;2023-04-03T10:39:04;5.00;;;2.20;;
6356;SDS011;3211;53.452;-2.264;2023-04-03T10:41:44;3.57;;;2.23;;
6356;SDS011;3211;53.452;-2.264;2023-04-03T10:44:24;6.50;;;2.20;;
6356;SDS011;3211;53.452;-2.264;2023-04-03T10:47:00;6.17;;;3.30;;
6356;SDS011;3211;53.452;-2.264;2023-04-03T10:49:35;4.57;;;2.47;;
6356;SDS011;3211;53.452;-2.264;2023-04-03T10:52:12;5.30;;;2.90;;
6356;SDS011;3211;53.452;-2.264;2023-04-03T10:54:44;5.07;;;2.47;;
6356;SDS011;3211;53.452;-2.264;2023-04-03T10:57:19;3.10;;;1.93;;
6356;SDS011;3211;53.452;-2.264;2023-04-03T10:59:49;6.37;;;2.40;;
6356;SDS011;3211;53.452;-2.264;2023-04-03T11:02:22;3.60;;;1.97;;
6356;SDS011;3211;53.452;-2.264;2023-04-03T11:04:52;5.30;;;2.13;;
6356;SDS011;3211;53.452;-2.264;2023-04-03T11:07:23;5.70;;;2.40;;
6356;SDS011;3211;53.452;-2.264;2023-04-03T11:09:57;3.63;;;2.20;;
6356;SDS011;3211;53.452;-2.264;2023-04-03T11:12:27;3.83;;;2.00;;
6356;SDS011;3211;53.452;-2.264;2023-04-03T11:15:00;3.30;;;2.10;;
6356;SDS011;3211;53.452;-2.264;2023-04-03T11:17:33;9.63;;;2.40;;
6356;SDS011;3211;53.452;-2.264;2023-04-03T11:20:06;5.73;;;2.17;;
6356;SDS011;3211;53.452;-2.264;2023-04-03T11:22:42;3.83;;;2.27;;
6356;SDS011;3211;53.452;-2.264;2023-04-03T11:25:14;5.30;;;2.43;;
6356;SDS011;3211;53.452;-2.264;2023-04-03T11:27:47;3.47;;;2.30;;
6356;SDS011;3211;53.452;-2.264;2023-04-03T11:30:18;3.87;;;1.80;;
6356;SDS011;3211;53.452;-2.264;2023-04-03T11:35:42;10.23;;;2.60;;
6356;SDS011;3211;53.452;-2.264;2023-04-03T11:38:13;5.20;;;2.00;;
6356;SDS011;3211;53.452;-2.264;2023-04-03T11:40:45;16.43;;;2.60;;
6356;SDS011;3211;53.452;-2.264;2023-04-03T11:43:23;5.97;;;1.93;;
6356;SDS011;3211;53.452;-2.264;2023-04-03T11:45:55;5.10;;;2.13;;
6356;SDS011;3211;53.452;-2.264;2023-04-03T11:48:44;4.83;;;2.00;;
6356;SDS011;3211;53.452;-2.264;2023-04-03T11:51:38;3.13;;;2.23;;
6356;SDS011;3211;53.452;-2.264;2023-04-03T12:03:30;6.43;;;1.80;;
6356;SDS011;3211;53.452;-2.264;2023-04-03T12:12:34;8.00;;;2.17;;
6356;SDS011;3211;53.452;-2.264;2023-04-03T12:15:22;4.53;;;2.00;;
6356;SDS011;3211;53.452;-2.264;2023-04-03T12:21:17;8.70;;;5.90;;
6356;SDS011;3211;53.452;-2.264;2023-04-03T12:24:02;5.10;;;3.27;;
6356;SDS011;3211;53.452;-2.264;2023-04-03T12:26:40;5.07;;;2.40;;
6356;SDS011;3211;53.452;-2.264;2023-04-03T12:29:15;3.90;;;2.50;;
6356;SDS011;3211;53.452;-2.264;2023-04-03T12:31:48;4.43;;;2.33;;
6356;SDS011;3211;53.452;-2.264;2023-04-03T12:34:29;4.23;;;2.00;;
6356;SDS011;3211;53.452;-2.264;2023-04-03T12:37:14;4.10;;;3.20;;
6356;SDS011;3211;53.452;-2.264;2023-04-03T12:39:55;7.67;;;2.57;;
6356;SDS011;3211;53.452;-2.264;2023-04-03T12:42:33;5.43;;;2.03;;
6356;SDS011;3211;53.452;-2.264;2023-04-03T12:45:23;3.57;;;2.10;;
6356;SDS011;3211;53.452;-2.264;2023-04-03T12:47:52;4.03;;;1.97;;
6356;SDS011;3211;53.452;-2.264;2023-04-03T12:50:21;3.57;;;1.63;;
6356;SDS011;3211;53.452;-2.264;2023-04-03T12:52:57;5.67;;;1.60;;
6356;SDS011;3211;53.452;-2.264;2023-04-03T12:55:27;3.83;;;1.50;;
6356;SDS011;3211;53.452;-2.264;2023-04-03T12:57:54;2.07;;;1.67;;
6356;SDS011;3211;53.452;-2.264;2023-04-03T13:00:27;7.10;;;2.10;;
6356;SDS011;3211;53.452;-2.264;2023-04-03T13:02:57;4.73;;;2.00;;
6356;SDS011;3211;53.452;-2.264;2023-04-03T13:05:25;5.00;;;2.37;;
6356;SDS011;3211;53.452;-2.264;2023-04-03T13:07:54;4.43;;;2.27;;
6356;SDS011;3211;53.452;-2.264;2023-04-03T14:04:47;3.53;;;2.20;;
6356;SDS011;3211;53.452;-2.264;2023-04-03T14:07:22;7.00;;;2.30;;
6356;SDS011;3211;53.452;-2.264;2023-04-03T14:09:50;6.00;;;2.40;;
6356;SDS011;3211;53.452;-2.264;2023-04-03T14:12:18;7.20;;;2.40;;
6356;SDS011;3211;53.452;-2.264;2023-04-03T14:14:47;4.23;;;2.20;;
6356;SDS011;3211;53.452;-2.264;2023-04-03T14:17:15;4.70;;;2.53;;
6356;SDS011;3211;53.452;-2.264;2023-04-03T14:19:47;4.27;;;2.27;;
6356;SDS011;3211;53.452;-2.264;2023-04-03T14:22:16;5.20;;;2.50;;
6356;SDS011;3211;53.452;-2.264;2023-04-03T14:24:46;4.10;;;2.10;;
6356;SDS011;3211;53.452;-2.264;2023-04-03T14:27:16;6.47;;;2.50;;
6356;SDS011;3211;53.452;-2.264;2023-04-03T14:29:45;6.00;;;2.73;;
6356;SDS011;3211;53.452;-2.264;2023-04-03T14:32:12;2.90;;;2.00;;
6356;SDS011;3211;53.452;-2.264;2023-04-03T14:34:41;6.10;;;2.17;;
6356;SDS011;3211;53.452;-2.264;2023-04-03T14:37:12;4.77;;;2.43;;
6356;SDS011;3211;53.452;-2.264;2023-04-03T14:39:40;5.07;;;2.03;;
6356;SDS011;3211;53.452;-2.264;2023-04-03T14:42:11;4.27;;;2.23;;
6356;SDS011;3211;53.452;-2.264;2023-04-03T14:44:39;4.23;;;1.90;;
6356;SDS011;3211;53.452;-2.264;2023-04-03T14:47:09;4.30;;;2.17;;
6356;SDS011;3211;53.452;-2.264;2023-04-03T14:49:39;5.93;;;2.80;;
6356;SDS011;3211;53.452;-2.264;2023-04-03T14:52:11;3.30;;;2.30;;
6356;SDS011;3211;53.452;-2.264;2023-04-03T14:54:44;4.07;;;2.60;;
6356;SDS011;3211;53.452;-2.264;2023-04-03T14:57:11;6.97;;;2.90;;
6356;SDS011;3211;53.452;-2.264;2023-04-03T14:59:41;7.80;;;2.60;;
6356;SDS011;3211;53.452;-2.264;2023-04-03T15:02:22;9.67;;;2.60;;
6356;SDS011;3211;53.452;-2.264;2023-04-03T15:04:52;4.30;;;2.43;;
6356;SDS011;3211;53.452;-2.264;2023-04-03T15:07:21;6.97;;;2.40;;
6356;SDS011;3211;53.452;-2.264;2023-04-03T15:09:50;6.10;;;2.53;;
6356;SDS011;3211;53.452;-2.264;2023-04-03T15:12:18;7.00;;;2.43;;
6356;SDS011;3211;53.452;-2.264;2023-04-03T15:14:45;5.60;;;2.20;;
6356;SDS011;3211;53.452;-2.264;2023-04-03T15:17:14;7.13;;;2.60;;
6356;SDS011;3211;53.452;-2.264;2023-04-03T15:19:43;5.33;;;2.33;;
6356;SDS011;3211;53.452;-2.264;2023-04-03T15:22:13;6.00;;;2.40;;
6356;SDS011;3211;53.452;-2.264;2023-04-03T15:24:42;4.53;;;2.20;;
6356;SDS011;3211;53.452;-2.264;2023-04-03T15:27:10;5.20;;;2.20;;
6356;SDS011;3211;53.452;-2.264;2023-04-03T15:29:40;7.97;;;2.20;;
6356;SDS011;3211;53.452;-2.264;2023-04-03T15:32:09;4.47;;;2.53;;
6356;SDS011;3211;53.452;-2.264;2023-04-03T15:34:37;3.73;;;2.20;;
6356;SDS011;3211;53.452;-2.264;2023-04-03T15:37:05;4.03;;;1.80;;
6356;SDS011;3211;53.452;-2.264;2023-04-03T15:39:32;4.70;;;2.20;;
6356;SDS011;3211;53.452;-2.264;2023-04-03T15:42:00;4.70;;;2.40;;
6356;SDS011;3211;53.452;-2.264;2023-04-03T15:44:31;5.00;;;2.77;;
6356;SDS011;3211;53.452;-2.264;2023-04-03T15:46:59;6.30;;;3.90;;
6356;SDS011;3211;53.452;-2.264;2023-04-03T15:49:27;9.10;;;2.87;;
6356;SDS011;3211;53.452;-2.264;2023-04-03T15:51:54;6.50;;;2.83;;
6356;SDS011;3211;53.452;-2.264;2023-04-03T15:54:21;3.63;;;2.00;;
6356;SDS011;3211;53.452;-2.264;2023-04-03T15:56:49;11.73;;;2.80;;
6356;SDS011;3211;53.452;-2.264;2023-04-03T15:59:17;5.60;;;2.37;;
6356;SDS011;3211;53.452;-2.264;2023-04-03T16:01:44;7.60;;;2.40;;
6356;SDS011;3211;53.452;-2.264;2023-04-03T16:04:12;3.63;;;2.67;;
6356;SDS011;3211;53.452;-2.264;2023-04-03T16:06:39;3.70;;;2.30;;
6356;SDS011;3211;53.452;-2.264;2023-04-03T16:09:06;4.23;;;2.50;;
6356;SDS011;3211;53.452;-2.264;2023-04-03T16:11:34;8.13;;;2.90;;
6356;SDS011;3211;53.452;-2.264;2023-04-03T16:14:04;4.73;;;2.30;;
6356;SDS011;3211;53.452;-2.264;2023-04-03T16:16:33;3.97;;;1.93;;
6356;SDS011;3211;53.452;-2.264;2023-04-03T16:19:01;4.73;;;2.30;;
6356;SDS011;3211;53.452;-2.264;2023-04-03T16:21:28;4.43;;;2.10;;
6356;SDS011;3211;53.452;-2.264;2023-04-03T16:23:56;4.00;;;2.23;;
6356;SDS011;3211;53.452;-2.264;2023-04-03T16:26:23;3.10;;;2.20;;
6356;SDS011;3211;53.452;-2.264;2023-04-03T16:28:50;4.50;;;2.50;;
6356;SDS011;3211;53.452;-2.264;2023-04-03T16:31:17;5.93;;;2.20;;
6356;SDS011;3211;53.452;-2.264;2023-04-03T16:33:46;3.77;;;2.53;;